首页
METAR-TAF:

METAR-TAF

机场 :

Mission Field

利文斯顿, 蒙大拿州, 美国

纬度: 45-41-58N, 经度: 110-26-54W, 海拔: 1419米

当前天气观测

该预报发布于47分钟前的12:53 UTC
风速10节,风向西转西北
温度 21°C
湿度 53%
气压 1020 hPa
能見度: 16.1公里
天空无云

METAR: KLVM 251253Z AUTO 29010KT 10SM CLR 21/11 A3011 RMK AO2 SLP141 T02110111

时间: 07:40 (13:40 UTC)

预报

该预报发布于2小时和20分钟前的11:20 UTC
预报有效从25日的 12点(UTC)到 26日的 12点(UTC)
风速11节,风向西转西南
能見度: 10公里
少量云层高于6000英尺
多云层高于11000英尺
从 25日的 1600点(UTC)
风速17节,风向西南,有时为27节阵风
能見度: 10公里
少量云层高于10000英尺
多云层高于12000英尺
从 25日的 1900点(UTC)
风速20节,风向西南,有时为34节阵风
能見度: 10公里
散云层高于10000英尺
附近有阵雨
从 26日的 0600点(UTC)
风速10节,风向西
能見度: 10公里
少量云层高于5000英尺
散云层高于10000英尺

TAF: KLVM 251120Z 2512/2612 24011KT P6SM FEW060 BKN110 FM251600 23017G27KT P6SM FEW100 BKN120 FM251900 23020G34KT P6SM VCSH SCT100 FM260600 27010KT P6SM FEW050 SCT100

超过4000个机场的气象观测和天气预报(METAR&TAF报告)。

可查询的气象台以黄色和红色小点在地图上表示。

将鼠标移到小点上方,可查看气象台名称。

然后点击查看天气观测和预报。

如需切换地图:点击带黑十字的绿色按钮放大地图;点击带横线的绿色按钮缩小地图;或者点击绿色箭头查看邻近地区的地图。


METAR-TAF: